Pagrindinis puslapis
METAR-TAF:

METAR-TAF

Oro uostai :

Esbjergas, Danija

platuma: 55-32N, ilguma: 008-34E, Aukštis: 30 m

Dabartinis oras

Ataskaita buvo paskelbta 17 minutes, ne 22:20 UTC
Vėjas 5 kt iš Pietryčių
Temperatūra 14°C
Drėgmė 82%
Slėgis 1019 hPa
Matomumas 10 km arba daugiau

METAR: EKEB 022220Z AUTO 14005KT 9999 FEW070/// SCT085/// BKN140/// BKN210/// 14/11 Q1019

Laikas: 00:37 (22:37 UTC)

Prognozė

Ataskaita buvo paskelbta 11 valandos ir 12 minutes, ne 11:25 UTC
Prognozė galioja nuo 02 metu 12 UTC su 02 metu 17 UTC
Vėjas 13 kt iš Pietų/Pietvakarių
Matomumas 10 km arba daugiau
Išsisklaidę debesys ne aukštis 2500 ft

TAF: EKEB 021125Z 0212/0217 21013KT 9999 SCT025

Orai ataskaitas ir orų prognozės (METAR, TAF).

turimą stotys yra geltonos ir raudonos taškus žemėlapyje.

Perkelti pele per norėdami pamatyti stoties vardą.

Tada spustelėkite, norėdami matyti oro stebėjimo ir prognozės.

Norėdami pakeisti žemėlapį: spustelėkite ant žalios mygtukų su juodo kryžiaus žemyn,; žalią mygtuką su brūkšneliu, jei norite nutolinti; arba žalių rodyklių gretimoms žemėlapius.


METAR-TAF: